createdAt,value
2022-12-11T06:05:13.834Z,5.82
2022-12-11T06:10:17.572Z,7.22
2022-12-11T06:15:21.138Z,5.70
2022-12-11T06:20:26.176Z,5.22
2022-12-11T06:25:30.317Z,5.60
2022-12-11T06:30:38.840Z,5.50
2022-12-11T06:35:44.546Z,5.37
2022-12-11T06:40:55.386Z,5.53
2022-12-11T06:46:03.730Z,5.68
2022-12-11T06:51:10.445Z,5.25
2022-12-11T06:56:16.417Z,5.78
2022-12-11T07:01:21.859Z,5.75
2022-12-11T07:06:28.707Z,5.32
2022-12-11T07:11:32.355Z,5.18
2022-12-11T07:21:41.191Z,5.07
2022-12-11T07:26:44.762Z,6.32
2022-12-11T07:31:48.388Z,5.15
2022-12-11T07:36:53.432Z,5.87
2022-12-11T07:41:56.983Z,5.93
2022-12-11T07:47:00.583Z,5.68
2022-12-11T07:52:06.109Z,5.53
2022-12-11T07:57:13.869Z,5.50
2022-12-11T08:02:18.168Z,6.15
2022-12-11T08:07:23.245Z,4.75
2022-12-11T08:12:26.828Z,6.35
2022-12-11T08:17:35.171Z,5.93
2022-12-11T08:22:43.709Z,6.45
2022-12-11T08:27:47.296Z,6.35
2022-12-11T08:32:50.937Z,5.50
2022-12-11T08:37:55.946Z,6.68
2022-12-11T08:42:59.599Z,6.50
2022-12-11T08:48:03.272Z,6.60
2022-12-11T08:53:08.248Z,6.62
2022-12-11T08:58:11.889Z,6.50
2022-12-11T09:03:15.569Z,7.03
2022-12-11T09:08:20.688Z,7.22
2022-12-11T09:13:24.297Z,6.90
2022-12-11T09:18:28.447Z,6.28
2022-12-11T09:28:39.036Z,5.78
2022-12-11T09:33:46.828Z,6.93
2022-12-11T09:38:51.905Z,6.00
2022-12-11T09:44:04.634Z,7.75
2022-12-11T09:49:19.053Z,7.80
2022-12-11T09:54:24.213Z,7.32
2022-12-11T09:59:38.083Z,6.37
2022-12-11T10:04:50.557Z,6.30
2022-12-11T10:10:01.202Z,7.25
2022-12-11T10:15:17.909Z,6.28
2022-12-11T10:20:26.845Z,6.22
2022-12-11T10:25:37.958Z,5.57
2022-12-11T10:30:49.333Z,5.72
2022-12-11T10:35:54.315Z,5.70
2022-12-11T10:41:02.051Z,4.30
2022-12-11T10:46:07.624Z,4.75
2022-12-11T10:51:11.815Z,4.20
2022-12-11T10:56:16.973Z,4.18
2022-12-11T11:01:24.332Z,3.95
2022-12-11T11:06:28.819Z,4.80
2022-12-11T11:11:37.260Z,3.62
2022-12-11T11:16:42.691Z,3.58
2022-12-11T11:21:51.859Z,4.05
2022-12-11T11:27:12.781Z,3.50
2022-12-11T11:32:21.400Z,3.35
2022-12-11T11:37:31.820Z,3.10
2022-12-11T11:42:44.227Z,3.83
2022-12-11T11:47:59.742Z,3.72
2022-12-11T11:53:07.298Z,3.90
2022-12-11T11:58:17.838Z,3.95
2022-12-11T12:03:24.148Z,4.00
2022-12-11T12:08:42.766Z,3.87
2022-12-11T12:13:58.009Z,4.60
2022-12-11T12:19:08.311Z,4.18
2022-12-11T12:24:23.406Z,4.10
2022-12-11T12:29:45.426Z,4.03
2022-12-11T12:35:02.734Z,3.67
2022-12-11T12:40:16.991Z,3.85
2022-12-11T12:45:29.885Z,3.37
2022-12-11T12:50:39.728Z,3.10
2022-12-11T12:55:43.741Z,2.50
2022-12-11T13:00:48.794Z,2.20
2022-12-11T13:05:59.093Z,2.35
2022-12-11T13:11:06.147Z,2.62
2022-12-11T13:16:35.400Z,3.33
2022-12-11T13:21:39.666Z,2.67
2022-12-11T13:26:43.727Z,2.92
2022-12-11T13:31:59.156Z,3.08
2022-12-11T13:37:05.001Z,2.70
2022-12-11T13:42:20.005Z,2.53
2022-12-11T13:47:25.445Z,2.70
2022-12-11T13:52:29.159Z,2.78
2022-12-11T13:57:33.046Z,3.25
2022-12-11T14:02:42.534Z,2.95
2022-12-11T14:07:50.732Z,3.00
2022-12-11T14:12:58.305Z,3.17
2022-12-11T14:18:04.466Z,3.30
2022-12-11T14:23:09.549Z,3.65
2022-12-11T14:28:18.083Z,3.25
2022-12-11T14:33:26.295Z,2.95
2022-12-11T14:38:34.680Z,2.40
2022-12-11T14:43:43.635Z,3.12
2022-12-11T14:48:59.128Z,3.45
2022-12-11T14:54:06.069Z,2.62
2022-12-11T14:59:25.494Z,2.40
2022-12-11T15:04:35.021Z,2.80
2022-12-11T15:09:40.838Z,2.67
2022-12-11T15:14:50.009Z,3.30
2022-12-11T15:19:57.808Z,3.10
2022-12-11T15:25:02.588Z,3.05
2022-12-11T15:30:28.257Z,3.33
2022-12-11T15:35:33.307Z,3.08
2022-12-11T15:40:36.896Z,3.20
2022-12-11T15:45:40.630Z,2.60
2022-12-11T15:50:45.791Z,2.83
2022-12-11T15:55:49.514Z,4.00
2022-12-11T16:00:53.426Z,4.55
2022-12-11T16:05:58.499Z,5.00
2022-12-11T16:11:02.122Z,3.40
2022-12-11T16:16:06.153Z,3.40
2022-12-11T16:21:11.186Z,3.45
2022-12-11T16:26:15.921Z,4.22
2022-12-11T16:31:19.613Z,3.12
2022-12-11T16:36:25.136Z,3.97
2022-12-11T16:41:28.816Z,3.67
2022-12-11T16:46:32.728Z,4.65
2022-12-11T16:51:37.714Z,4.93
2022-12-11T16:56:41.471Z,4.45
2022-12-11T17:01:45.457Z,5.40
2022-12-11T17:06:50.486Z,4.85
2022-12-11T17:11:55.429Z,5.00
2022-12-11T17:16:59.037Z,6.40
2022-12-11T17:22:04.625Z,5.77
2022-12-11T17:27:08.334Z,6.22
2022-12-11T17:32:11.927Z,5.85
2022-12-11T17:37:16.877Z,5.53
2022-12-11T17:42:20.497Z,6.10
2022-12-11T17:47:24.109Z,5.30
2022-12-11T17:52:33.980Z,6.32
2022-12-11T17:57:38.619Z,5.80
2022-12-11T18:02:42.194Z,5.03
2022-12-11T18:07:47.251Z,5.35
2022-12-11T18:12:50.897Z,5.30
2022-12-11T18:17:54.497Z,6.87
2022-12-11T18:23:00.299Z,6.60
2022-12-11T18:28:03.884Z,6.53
2022-12-11T18:33:07.568Z,8.48
2022-12-11T18:38:12.700Z,7.78
2022-12-11T18:43:16.322Z,7.22
2022-12-11T18:48:19.929Z,7.35
2022-12-11T18:53:24.915Z,8.02
2022-12-11T18:58:28.559Z,10.07
2022-12-11T19:03:32.201Z,7.00
2022-12-11T19:08:37.729Z,7.65
2022-12-11T19:13:41.359Z,10.05
2022-12-11T19:18:45.545Z,10.45
2022-12-11T19:28:55.501Z,10.63
2022-12-11T19:33:59.561Z,13.40
2022-12-11T19:39:09.838Z,11.02
2022-12-11T19:44:16.403Z,12.23
2022-12-11T19:49:20.042Z,14.07
2022-12-11T19:54:26.845Z,12.57
2022-12-11T19:59:30.426Z,12.43
2022-12-11T20:04:34.366Z,12.73
2022-12-11T20:09:39.354Z,13.68
2022-12-11T20:14:43.015Z,13.65
2022-12-11T20:19:46.628Z,8.57
2022-12-11T20:24:51.613Z,7.93
2022-12-11T20:29:55.492Z,7.80
2022-12-11T20:34:59.284Z,7.57
2022-12-11T20:40:05.127Z,7.07
2022-12-11T20:45:09.922Z,6.15
2022-12-11T20:50:13.751Z,6.05
2022-12-11T20:55:18.747Z,5.28
2022-12-11T21:00:22.825Z,5.15
2022-12-11T21:05:26.716Z,5.00
2022-12-11T21:10:31.722Z,3.67
2022-12-11T21:15:36.976Z,4.53
2022-12-11T21:20:40.595Z,3.22
2022-12-11T21:25:45.569Z,3.10
2022-12-11T21:30:49.192Z,3.17
2022-12-11T21:35:56.302Z,3.03
2022-12-11T21:41:08.342Z,3.15
2022-12-11T21:46:13.860Z,2.72
2022-12-11T21:51:19.666Z,2.95
2022-12-11T21:56:28.155Z,3.58
2022-12-11T22:01:35.129Z,3.92
2022-12-11T22:06:40.239Z,3.47
2022-12-11T22:11:46.859Z,3.25
2022-12-11T22:16:50.808Z,2.87
2022-12-11T22:21:54.437Z,3.42
2022-12-11T22:26:59.364Z,3.78
2022-12-11T22:32:03.324Z,3.42
2022-12-11T22:37:06.902Z,2.92
2022-12-11T22:42:11.900Z,3.78
2022-12-11T22:47:15.834Z,3.45
2022-12-11T22:52:19.496Z,3.35
2022-12-11T22:57:24.472Z,2.83
2022-12-11T23:02:28.247Z,3.42
2022-12-11T23:07:32.025Z,2.83
2022-12-11T23:12:38.186Z,3.60
2022-12-11T23:17:41.796Z,3.22
2022-12-11T23:22:45.402Z,2.85
2022-12-11T23:27:50.366Z,3.37
